createdAt,value
2019-05-03T00:02:24.688Z,78.21
2019-05-03T00:04:59.430Z,78.33
2019-05-03T00:07:31.710Z,78.43
2019-05-03T00:10:05.307Z,78.57
2019-05-03T00:12:37.480Z,78.65
2019-05-03T00:15:17.740Z,78.74
2019-05-03T00:17:49.688Z,78.91
2019-05-03T00:20:23.419Z,78.91
2019-05-03T00:22:55.178Z,79.14
2019-05-03T00:25:27.111Z,79.09
2019-05-03T00:27:58.982Z,78.99
2019-05-03T00:30:32.037Z,78.29
2019-05-03T00:33:04.268Z,77.52
2019-05-03T00:35:53.744Z,77.46
2019-05-03T00:38:25.582Z,77.58
2019-05-03T00:40:57.265Z,77.64
2019-05-03T00:43:29.101Z,77.64
2019-05-03T00:46:02.024Z,77.66
2019-05-03T00:48:34.907Z,78.09
2019-05-03T00:51:06.873Z,78.41
2019-05-03T00:53:39.473Z,78.22
2019-05-03T00:56:12.263Z,78.10
2019-05-03T00:58:52.987Z,77.93
2019-05-03T01:01:24.739Z,77.85
2019-05-03T01:03:56.933Z,78.01
2019-05-03T01:06:28.593Z,78.21
2019-05-03T01:09:02.546Z,78.64
2019-05-03T01:11:36.079Z,79.05
2019-05-03T01:14:07.977Z,79.49
2019-05-03T01:16:39.634Z,79.49
2019-05-03T01:19:12.091Z,79.66
2019-05-03T01:21:43.790Z,79.79
2019-05-03T01:24:18.101Z,80.02
2019-05-03T01:26:48.720Z,80.27
2019-05-03T01:29:22.679Z,80.52
2019-05-03T01:31:53.987Z,80.68
2019-05-03T01:34:25.924Z,80.86
2019-05-03T01:36:57.717Z,80.92
2019-05-03T01:39:31.649Z,80.97
2019-05-03T01:42:03.395Z,81.05
2019-05-03T01:44:35.172Z,81.13
2019-05-03T01:47:08.753Z,81.19
2019-05-03T01:49:42.676Z,81.27
2019-05-03T01:52:15.929Z,81.41
2019-05-03T01:54:47.834Z,81.61
2019-05-03T01:57:19.457Z,81.79
2019-05-03T01:59:52.052Z,82.05
2019-05-03T02:02:37.443Z,82.19
2019-05-03T02:05:27.636Z,82.27
2019-05-03T02:07:59.806Z,82.25
2019-05-03T02:10:32.240Z,82.14
2019-05-03T02:13:04.656Z,81.95
2019-05-03T02:15:36.303Z,81.87
2019-05-03T02:18:08.261Z,81.89
2019-05-03T02:20:41.822Z,81.99
2019-05-03T02:23:13.603Z,82.06
2019-05-03T02:25:55.653Z,81.95
2019-05-03T02:28:18.785Z,81.82
2019-05-03T02:30:53.264Z,81.61
2019-05-03T02:33:23.989Z,81.45
2019-05-03T02:35:55.739Z,81.37
2019-05-03T02:38:28.220Z,81.31
2019-05-03T02:41:02.702Z,81.36
2019-05-03T02:43:37.786Z,81.52
2019-05-03T02:46:27.770Z,81.72
2019-05-03T02:49:01.063Z,81.91
2019-05-03T02:51:35.853Z,81.99
2019-05-03T02:54:06.424Z,82.06
2019-05-03T02:56:38.394Z,81.98
2019-05-03T02:59:10.130Z,81.97
2019-05-03T03:01:42.400Z,82.01
2019-05-03T03:04:15.814Z,82.09
2019-05-03T03:06:49.542Z,82.08
2019-05-03T03:09:25.880Z,82.14
2019-05-03T03:11:59.086Z,82.26
2019-05-03T03:14:32.916Z,82.37
2019-05-03T03:17:07.004Z,82.58
2019-05-03T03:19:42.016Z,82.79
2019-05-03T03:22:16.592Z,83.05
2019-05-03T03:24:51.533Z,83.23
2019-05-03T03:27:25.847Z,83.53
2019-05-03T03:30:29.387Z,83.60
2019-05-03T03:33:08.770Z,83.60
2019-05-03T03:35:40.273Z,83.63
2019-05-03T03:38:11.917Z,83.62
2019-05-03T03:40:45.425Z,83.54
2019-05-03T03:43:20.394Z,83.67
2019-05-03T03:45:52.541Z,83.58
2019-05-03T03:48:26.764Z,83.31
2019-05-03T03:51:00.152Z,83.07
2019-05-03T03:53:35.606Z,82.90
2019-05-03T03:56:07.428Z,82.65
2019-05-03T03:58:39.415Z,82.45
2019-05-03T04:01:11.764Z,82.27
2019-05-03T04:03:46.004Z,82.12
2019-05-03T04:06:18.077Z,81.97
2019-05-03T04:08:50.324Z,81.78
2019-05-03T04:11:22.147Z,81.62
2019-05-03T04:13:55.996Z,81.43
2019-05-03T04:16:36.409Z,81.17
2019-05-03T04:19:13.270Z,80.94
2019-05-03T04:21:45.489Z,80.60
2019-05-03T04:24:17.506Z,80.29
2019-05-03T04:26:51.418Z,80.04
2019-05-03T04:29:25.387Z,79.83
2019-05-03T04:31:56.764Z,79.63
2019-05-03T04:34:28.653Z,79.48
2019-05-03T04:37:00.488Z,79.31
2019-05-03T04:39:32.389Z,79.21
2019-05-03T04:42:06.370Z,78.99
2019-05-03T04:44:38.868Z,78.50
2019-05-03T04:47:10.603Z,78.29
2019-05-03T04:49:42.111Z,77.73
2019-05-03T04:52:16.545Z,77.40
2019-05-03T04:54:51.854Z,76.54
2019-05-03T04:57:36.434Z,76.55
2019-05-03T04:59:58.137Z,76.16
2019-05-03T05:02:30.002Z,76.00
2019-05-03T05:05:01.864Z,75.41
2019-05-03T05:07:35.070Z,75.45
2019-05-03T05:10:08.154Z,75.26
2019-05-03T05:12:40.105Z,74.65
2019-05-03T05:15:12.494Z,74.62
2019-05-03T05:17:46.105Z,74.70
2019-05-03T05:20:36.601Z,73.89
2019-05-03T05:23:08.765Z,73.22
2019-05-03T05:25:48.087Z,72.94
2019-05-03T05:28:21.467Z,72.93
2019-05-03T05:30:54.608Z,72.54
2019-05-03T05:33:26.355Z,71.88
2019-05-03T05:35:58.623Z,71.17
2019-05-03T05:38:30.473Z,71.16
2019-05-03T05:41:02.133Z,71.23
2019-05-03T05:43:35.697Z,70.95
2019-05-03T05:46:07.515Z,70.72
2019-05-03T05:48:41.018Z,70.30
2019-05-03T05:51:14.150Z,70.43
2019-05-03T05:53:46.270Z,70.61
2019-05-03T05:56:28.875Z,70.50
2019-05-03T05:59:15.015Z,70.23
2019-05-03T06:01:48.675Z,69.59
2019-05-03T06:04:21.768Z,69.55
2019-05-03T06:07:04.655Z,69.48
2019-05-03T06:09:38.001Z,68.19
2019-05-03T06:12:17.122Z,68.17
2019-05-03T06:14:50.678Z,67.34
2019-05-03T06:17:24.514Z,66.78
2019-05-03T06:20:05.408Z,66.25
2019-05-03T06:22:45.671Z,65.91
2019-05-03T06:25:26.195Z,66.03
2019-05-03T06:27:56.663Z,64.41
2019-05-03T06:30:36.030Z,63.11
2019-05-03T06:33:08.000Z,62.94
2019-05-03T06:35:39.728Z,63.00
2019-05-03T06:38:11.384Z,62.78
2019-05-03T06:40:44.676Z,62.37
2019-05-03T06:43:16.870Z,62.05
2019-05-03T06:45:50.337Z,62.01
2019-05-03T06:48:26.643Z,61.89
2019-05-03T06:50:55.841Z,61.75
2019-05-03T06:53:28.929Z,61.45
2019-05-03T06:56:01.098Z,60.48
2019-05-03T06:58:35.758Z,60.33
2019-05-03T07:01:11.368Z,59.62
2019-05-03T07:03:44.810Z,59.19
2019-05-03T07:06:18.272Z,57.95
2019-05-03T07:09:10.019Z,57.18
2019-05-03T07:11:41.858Z,56.54
2019-05-03T07:14:15.578Z,57.16
2019-05-03T07:16:47.252Z,56.98
2019-05-03T07:19:19.001Z,54.99
2019-05-03T07:21:50.746Z,54.47
2019-05-03T07:24:22.505Z,53.74
2019-05-03T07:26:55.093Z,54.43
2019-05-03T07:29:26.989Z,54.85
2019-05-03T07:31:58.709Z,52.81
2019-05-03T07:34:30.880Z,52.32
2019-05-03T07:37:02.556Z,52.27
2019-05-03T07:39:35.045Z,51.56
2019-05-03T07:42:06.901Z,51.09
2019-05-03T07:44:40.294Z,51.33
2019-05-03T07:47:12.155Z,49.43
2019-05-03T07:49:44.718Z,49.40
2019-05-03T07:52:16.598Z,47.69
2019-05-03T07:54:48.672Z,46.74
2019-05-03T07:57:28.209Z,46.68
2019-05-03T08:00:00.181Z,46.65
2019-05-03T08:02:32.150Z,46.80
2019-05-03T08:05:05.289Z,48.12
2019-05-03T08:07:37.914Z,47.70
2019-05-03T08:10:09.671Z,47.64
2019-05-03T08:12:41.532Z,48.00
2019-05-03T08:15:15.692Z,47.95
2019-05-03T08:17:47.411Z,47.65
2019-05-03T08:20:19.256Z,48.23
2019-05-03T08:22:51.031Z,45.85
2019-05-03T08:25:24.863Z,43.94
2019-05-03T08:27:56.281Z,43.99
2019-05-03T08:30:30.607Z,43.41
2019-05-03T08:33:10.243Z,42.42
2019-05-03T08:35:44.786Z,43.25
2019-05-03T08:38:16.523Z,43.24
2019-05-03T08:40:48.818Z,42.04
2019-05-03T08:43:20.372Z,43.11
2019-05-03T08:45:52.033Z,43.96
2019-05-03T08:48:24.990Z,43.98
2019-05-03T08:50:56.887Z,44.43
2019-05-03T08:53:28.429Z,44.97
2019-05-03T08:56:00.521Z,44.32
2019-05-03T08:58:32.277Z,41.33
2019-05-03T09:01:05.501Z,40.21
2019-05-03T09:03:38.467Z,40.66
2019-05-03T09:06:11.670Z,40.95
2019-05-03T09:08:45.842Z,39.30
2019-05-03T09:11:30.773Z,40.51
2019-05-03T09:13:52.982Z,40.16
2019-05-03T09:16:25.157Z,40.72
2019-05-03T09:18:57.319Z,41.27
2019-05-03T09:21:29.227Z,42.03
2019-05-03T09:24:01.252Z,41.58
2019-05-03T09:26:34.830Z,41.85
2019-05-03T09:29:06.724Z,43.06
2019-05-03T09:31:39.109Z,43.02
2019-05-03T09:34:10.760Z,43.09
2019-05-03T09:36:44.780Z,44.01
2019-05-03T09:39:16.116Z,44.77
2019-05-03T09:41:49.002Z,44.53
2019-05-03T09:44:21.278Z,42.45
2019-05-03T09:46:54.963Z,40.28
2019-05-03T09:49:26.859Z,41.32
2019-05-03T09:51:58.550Z,39.42
2019-05-03T09:54:32.009Z,38.45
2019-05-03T09:57:05.735Z,37.39
2019-05-03T09:59:36.967Z,38.30
2019-05-03T10:02:08.823Z,38.04
2019-05-03T10:04:40.914Z,37.92
2019-05-03T10:07:15.175Z,37.67
2019-05-03T10:09:46.474Z,38.06
2019-05-03T10:12:19.845Z,38.27
2019-05-03T10:14:52.043Z,38.05
2019-05-03T10:17:35.179Z,37.99
2019-05-03T10:20:09.354Z,38.09
2019-05-03T10:22:40.905Z,38.41
2019-05-03T10:25:13.453Z,37.78
2019-05-03T10:27:47.718Z,37.97
2019-05-03T10:30:25.935Z,37.10
2019-05-03T10:33:05.953Z,36.25
2019-05-03T10:35:37.770Z,37.87
2019-05-03T10:38:09.528Z,37.11
2019-05-03T10:40:41.295Z,36.59
2019-05-03T10:43:13.237Z,36.19
2019-05-03T10:45:45.089Z,35.63
2019-05-03T10:48:18.193Z,36.52
2019-05-03T10:50:51.004Z,35.52
2019-05-03T10:53:27.453Z,34.83
2019-05-03T10:56:23.410Z,36.00
2019-05-03T10:58:56.677Z,36.16
2019-05-03T11:01:46.478Z,34.47
2019-05-03T11:04:18.222Z,34.71
2019-05-03T11:06:50.201Z,37.90
2019-05-03T11:09:21.966Z,40.91
2019-05-03T11:11:55.550Z,60.20
2019-05-03T11:14:28.205Z,67.80
2019-05-03T11:17:00.612Z,71.60
2019-05-03T11:19:34.603Z,74.78
2019-05-03T11:22:06.198Z,78.61
2019-05-03T11:24:37.755Z,80.40
2019-05-03T11:27:24.820Z,80.93
2019-05-03T11:29:59.156Z,82.27
2019-05-03T11:32:31.580Z,84.10
2019-05-03T11:35:24.713Z,76.12
2019-05-03T11:38:00.902Z,76.78
2019-05-03T11:40:34.610Z,74.98
2019-05-03T11:43:07.387Z,74.61
2019-05-03T11:45:39.258Z,73.95
2019-05-03T11:48:11.224Z,72.22
2019-05-03T11:50:45.186Z,73.29
2019-05-03T11:53:16.482Z,73.28
2019-05-03T11:55:48.248Z,72.54
2019-05-03T11:58:23.075Z,74.17
2019-05-03T12:01:11.805Z,72.40
2019-05-03T12:03:36.842Z,66.42
2019-05-03T12:06:08.488Z,67.69
2019-05-03T12:08:40.442Z,69.95
2019-05-03T12:11:12.203Z,70.86
2019-05-03T12:13:45.710Z,73.57
2019-05-03T12:16:25.487Z,74.24
2019-05-03T12:18:54.055Z,77.82
2019-05-03T12:21:27.158Z,77.93
2019-05-03T12:23:58.946Z,76.57
2019-05-03T12:26:41.591Z,76.14
2019-05-03T12:29:04.726Z,73.36
2019-05-03T12:31:40.411Z,72.24
2019-05-03T12:34:09.739Z,74.08
2019-05-03T12:36:41.549Z,72.09
2019-05-03T12:39:24.181Z,69.81
2019-05-03T12:41:48.177Z,66.15
2019-05-03T12:44:20.243Z,65.36
2019-05-03T12:46:52.141Z,66.63
2019-05-03T12:49:24.910Z,61.11
2019-05-03T12:51:56.657Z,54.95
2019-05-03T12:54:28.539Z,53.13
2019-05-03T12:57:00.587Z,51.15
2019-05-03T12:59:37.944Z,51.97
2019-05-03T13:02:11.076Z,52.36
2019-05-03T13:04:44.839Z,52.38
2019-05-03T13:07:21.025Z,51.46
2019-05-03T13:09:54.519Z,51.43
2019-05-03T13:12:28.071Z,51.88
2019-05-03T13:15:00.032Z,53.32
2019-05-03T13:17:38.042Z,54.90
2019-05-03T13:20:14.890Z,55.90
2019-05-03T13:22:46.878Z,54.66
2019-05-03T13:25:18.857Z,51.81
2019-05-03T13:27:50.928Z,47.59
2019-05-03T13:30:24.958Z,45.22
2019-05-03T13:32:57.217Z,46.51
2019-05-03T13:35:29.160Z,44.42
2019-05-03T13:38:00.838Z,45.02
2019-05-03T13:40:32.803Z,45.67
2019-05-03T13:43:06.629Z,45.79
2019-05-03T13:45:38.172Z,46.21
2019-05-03T13:48:10.017Z,46.73
2019-05-03T13:50:42.001Z,45.23
2019-05-03T13:53:16.014Z,45.74
2019-05-03T13:55:47.053Z,42.90
2019-05-03T13:58:18.917Z,42.71
2019-05-03T14:00:51.307Z,40.96
2019-05-03T14:03:23.054Z,39.76
2019-05-03T14:05:55.229Z,39.81
2019-05-03T14:08:27.023Z,38.76
2019-05-03T14:10:58.729Z,39.74
2019-05-03T14:13:30.693Z,38.42
2019-05-03T14:16:02.370Z,37.10
2019-05-03T14:18:35.749Z,38.71
2019-05-03T14:21:12.218Z,37.83
2019-05-03T14:24:01.646Z,39.17
2019-05-03T14:26:35.169Z,40.23
2019-05-03T14:29:06.877Z,39.99
2019-05-03T14:31:38.637Z,39.19
2019-05-03T14:34:10.251Z,39.19
2019-05-03T14:36:42.160Z,39.74
2019-05-03T14:39:15.058Z,41.86
2019-05-03T14:41:47.018Z,39.65
2019-05-03T14:44:19.694Z,39.56
2019-05-03T14:46:51.460Z,37.28
2019-05-03T14:49:25.375Z,37.25
2019-05-03T14:51:56.947Z,37.93
2019-05-03T14:54:30.629Z,37.68
2019-05-03T14:57:10.174Z,37.04
2019-05-03T14:59:59.959Z,37.04
2019-05-03T15:02:43.014Z,37.71
2019-05-03T15:05:07.459Z,39.89
2019-05-03T15:07:39.238Z,38.73
2019-05-03T15:10:11.718Z,37.29
2019-05-03T15:12:45.156Z,37.62
2019-05-03T15:15:17.285Z,37.79
2019-05-03T15:17:49.154Z,38.38
2019-05-03T15:20:25.500Z,39.36
2019-05-03T15:22:57.493Z,39.78
2019-05-03T15:25:29.252Z,40.78
2019-05-03T15:28:01.110Z,41.42
2019-05-03T15:30:34.984Z,41.76
2019-05-03T15:33:06.155Z,42.34
2019-05-03T15:35:37.832Z,43.37
2019-05-03T15:38:09.899Z,43.30
2019-05-03T15:40:41.563Z,44.03
2019-05-03T15:43:15.157Z,43.98
2019-05-03T15:45:57.672Z,45.71
2019-05-03T15:48:31.273Z,45.71
2019-05-03T15:51:04.762Z,46.24
2019-05-03T15:53:36.622Z,46.95
2019-05-03T15:56:08.484Z,47.70
2019-05-03T15:58:40.570Z,48.09
2019-05-03T16:01:12.336Z,49.15
2019-05-03T16:03:44.905Z,48.99
2019-05-03T16:06:16.772Z,48.89
2019-05-03T16:08:48.636Z,49.43
2019-05-03T16:11:20.601Z,49.96
2019-05-03T16:13:52.374Z,50.17
2019-05-03T16:16:24.839Z,49.95
2019-05-03T16:18:56.726Z,50.51
2019-05-03T16:21:29.038Z,50.68
2019-05-03T16:24:00.731Z,50.87
2019-05-03T16:26:32.374Z,51.33
2019-05-03T16:29:06.188Z,51.40
2019-05-03T16:31:38.104Z,51.57
2019-05-03T16:34:11.183Z,51.49
2019-05-03T16:36:42.921Z,52.09
2019-05-03T16:39:15.384Z,52.13
2019-05-03T16:41:47.467Z,52.17
2019-05-03T16:44:19.319Z,52.08
2019-05-03T16:46:51.295Z,52.35
2019-05-03T16:49:24.650Z,52.53
2019-05-03T16:51:56.264Z,52.70
2019-05-03T16:54:29.093Z,53.11
2019-05-03T16:57:02.278Z,53.38
2019-05-03T16:59:35.307Z,54.02
2019-05-03T17:02:07.107Z,54.59
2019-05-03T17:04:46.122Z,55.11
2019-05-03T17:07:36.309Z,56.00
2019-05-03T17:10:10.456Z,56.73
2019-05-03T17:12:42.403Z,56.97
2019-05-03T17:15:14.667Z,56.91
2019-05-03T17:17:46.261Z,56.83
2019-05-03T17:20:18.379Z,56.85
2019-05-03T17:22:50.055Z,56.95
2019-05-03T17:25:22.021Z,57.22
2019-05-03T17:27:54.291Z,57.30
2019-05-03T17:30:33.883Z,57.59
2019-05-03T17:32:59.651Z,58.14
2019-05-03T17:35:31.388Z,58.33
2019-05-03T17:38:05.311Z,58.78
2019-05-03T17:40:38.526Z,59.01
2019-05-03T17:43:15.715Z,59.25
2019-05-03T17:45:49.411Z,59.41
2019-05-03T17:48:21.190Z,59.70
2019-05-03T17:50:54.934Z,59.87
2019-05-03T17:53:31.367Z,59.86
2019-05-03T17:56:15.245Z,59.99
2019-05-03T17:58:48.607Z,60.17
2019-05-03T18:01:35.234Z,60.37
2019-05-03T18:04:09.592Z,60.42
2019-05-03T18:06:59.624Z,60.57
2019-05-03T18:09:34.560Z,60.63
2019-05-03T18:12:06.861Z,60.77
2019-05-03T18:14:38.690Z,61.09
2019-05-03T18:17:10.563Z,61.14
2019-05-03T18:19:42.432Z,61.10
2019-05-03T18:22:15.287Z,61.41
2019-05-03T18:24:47.020Z,61.41
2019-05-03T18:27:19.139Z,61.61
2019-05-03T18:29:51.000Z,62.01
2019-05-03T18:32:22.848Z,62.27
2019-05-03T18:34:54.789Z,62.57
2019-05-03T18:37:26.578Z,62.89
2019-05-03T18:39:58.646Z,63.14
2019-05-03T18:42:32.270Z,63.41
2019-05-03T18:45:09.707Z,63.67
2019-05-03T18:47:41.739Z,63.84
2019-05-03T18:50:13.704Z,64.21
2019-05-03T18:52:45.771Z,64.45
2019-05-03T18:55:17.733Z,64.82
2019-05-03T18:57:49.596Z,65.08
2019-05-03T19:00:22.104Z,65.45
2019-05-03T19:02:54.642Z,65.92
2019-05-03T19:05:28.102Z,66.10
2019-05-03T19:08:01.349Z,66.22
2019-05-03T19:10:37.719Z,66.34
2019-05-03T19:13:19.803Z,66.75
2019-05-03T19:15:51.904Z,67.01
2019-05-03T19:18:37.480Z,67.31
2019-05-03T19:21:09.235Z,67.33
2019-05-03T19:23:41.100Z,67.34
2019-05-03T19:26:14.450Z,67.37
2019-05-03T19:28:46.134Z,67.45
2019-05-03T19:31:18.117Z,67.54
2019-05-03T19:33:49.879Z,67.56
2019-05-03T19:36:21.846Z,67.52
2019-05-03T19:38:54.639Z,67.59
2019-05-03T19:41:26.395Z,67.56
2019-05-03T19:43:58.142Z,67.72
2019-05-03T19:46:30.116Z,67.74
2019-05-03T19:49:02.393Z,67.88
2019-05-03T19:51:34.378Z,68.23
2019-05-03T19:54:07.429Z,68.45
2019-05-03T19:56:39.210Z,68.63
2019-05-03T19:59:14.816Z,69.10
2019-05-03T20:01:55.297Z,69.26
2019-05-03T20:04:28.522Z,69.61
2019-05-03T20:07:05.398Z,69.74
2019-05-03T20:09:38.083Z,70.00
2019-05-03T20:12:10.031Z,70.21
2019-05-03T20:14:42.062Z,70.54
2019-05-03T20:17:14.858Z,70.81
2019-05-03T20:19:46.538Z,70.97
2019-05-03T20:22:18.531Z,71.23
2019-05-03T20:24:50.472Z,71.44
2019-05-03T20:27:24.393Z,71.86
2019-05-03T20:29:55.732Z,72.30
2019-05-03T20:32:27.624Z,72.60
2019-05-03T20:35:10.711Z,72.84
2019-05-03T20:37:34.359Z,73.02
2019-05-03T20:40:07.391Z,73.29
2019-05-03T20:42:46.762Z,73.54
2019-05-03T20:45:38.795Z,73.48
2019-05-03T20:48:14.433Z,73.42
2019-05-03T20:50:46.304Z,73.22
2019-05-03T20:53:18.282Z,73.08
2019-05-03T20:55:50.137Z,73.12
2019-05-03T20:58:22.023Z,73.08
2019-05-03T21:00:54.532Z,73.05
2019-05-03T21:03:26.444Z,73.09
2019-05-03T21:05:58.402Z,73.09
2019-05-03T21:08:30.438Z,73.22
2019-05-03T21:11:02.422Z,73.47
2019-05-03T21:13:41.959Z,73.61
2019-05-03T21:16:09.251Z,73.76
2019-05-03T21:19:01.372Z,73.95
2019-05-03T21:21:35.211Z,74.07
2019-05-03T21:24:08.791Z,74.27
2019-05-03T21:26:41.965Z,74.50
2019-05-03T21:29:15.202Z,74.74
2019-05-03T21:31:46.936Z,74.96
2019-05-03T21:34:18.904Z,75.05
2019-05-03T21:36:50.871Z,75.14
2019-05-03T21:39:24.603Z,75.37
2019-05-03T21:41:56.131Z,75.58
2019-05-03T21:44:31.867Z,75.86
2019-05-03T21:47:15.239Z,76.17
2019-05-03T21:49:48.512Z,76.37
2019-05-03T21:52:20.270Z,76.60
2019-05-03T21:54:51.916Z,76.87
2019-05-03T21:57:25.318Z,77.16
2019-05-03T21:59:56.983Z,77.39
2019-05-03T22:02:29.052Z,77.53
2019-05-03T22:05:00.881Z,77.73
2019-05-03T22:07:32.785Z,77.99
2019-05-03T22:10:05.152Z,78.28
2019-05-03T22:12:36.901Z,78.55
2019-05-03T22:15:27.301Z,78.84
2019-05-03T22:18:01.026Z,79.15
2019-05-03T22:20:37.395Z,79.44
2019-05-03T22:23:11.000Z,79.63
2019-05-03T22:25:44.173Z,79.82
2019-05-03T22:28:15.857Z,80.04
2019-05-03T22:30:47.701Z,80.20
2019-05-03T22:33:19.786Z,80.35
2019-05-03T22:36:05.971Z,80.46
2019-05-03T22:38:26.585Z,80.60
2019-05-03T22:40:58.325Z,80.63
2019-05-03T22:43:30.516Z,80.52
2019-05-03T22:46:02.579Z,80.49
2019-05-03T22:48:34.578Z,80.59
2019-05-03T22:51:06.591Z,80.51
2019-05-03T22:53:38.576Z,80.52
2019-05-03T22:59:07.700Z,80.77
2019-05-03T23:01:39.458Z,80.83
2019-05-03T23:04:11.474Z,80.91
2019-05-03T23:06:46.673Z,80.95
2019-05-03T23:09:16.690Z,80.88
2019-05-03T23:11:48.553Z,80.82
2019-05-03T23:14:20.519Z,80.83
2019-05-03T23:16:52.351Z,80.70
2019-05-03T23:19:24.529Z,80.41
2019-05-03T23:22:04.789Z,80.14
2019-05-03T23:24:36.577Z,80.15
2019-05-03T23:27:08.639Z,80.09
2019-05-03T23:29:40.405Z,79.90
2019-05-03T23:32:12.473Z,79.71
2019-05-03T23:34:46.243Z,79.68
2019-05-03T23:37:18.249Z,79.67
2019-05-03T23:39:50.209Z,79.64
2019-05-03T23:42:22.079Z,79.73
2019-05-03T23:44:54.129Z,79.91
2019-05-03T23:47:27.853Z,80.19
2019-05-03T23:49:59.596Z,80.53
2019-05-03T23:52:35.057Z,80.78
2019-05-03T23:55:12.232Z,80.93
2019-05-03T23:57:44.635Z,81.08
